Time,TemperatureF,DewpointF,PressureIn,WindDirection,WindDirectionDegrees,WindSpeedMPH,WindSpeedGustMPH,Humidity,HourlyPrecipIn,Conditions,Clouds,dailyrainin,SolarRadiationWatts/m^2,SoftwareType,DateUTC
2013-06-02 00:01:00,82.0,34.0,-100.00,NE,52,4.0,5.0,18,0.00,,,0.00,1.000000,,2013-06-02 07:01:00,
2013-06-02 00:32:00,79.0,33.0,-100.00,SW,233,1.0,6.0,19,0.00,,,0.00,1.000000,,2013-06-02 07:32:00,
2013-06-02 00:42:00,79.0,33.0,-100.00,SW,233,1.0,6.0,19,0.00,,,0.00,1.000000,,2013-06-02 07:42:00,
2013-06-02 00:52:00,79.0,33.0,-100.00,SW,233,1.0,6.0,19,0.00,,,0.00,1.000000,,2013-06-02 07:52:00,
2013-06-02 01:01:00,79.0,33.0,-100.00,SW,233,1.0,6.0,19,0.00,,,0.00,1.000000,,2013-06-02 08:01:00,
2013-06-02 01:32:00,76.0,36.0,-100.00,NW,313,3.0,5.0,23,0.00,,,0.00,1.000000,,2013-06-02 08:32:00,
2013-06-02 01:42:00,76.0,36.0,-100.00,NW,313,3.0,5.0,23,0.00,,,0.00,1.000000,,2013-06-02 08:42:00,
2013-06-02 01:52:00,76.0,36.0,-100.00,NW,313,3.0,5.0,23,0.00,,,0.00,1.000000,,2013-06-02 08:52:00,
2013-06-02 02:01:00,76.0,36.0,-100.00,NW,313,3.0,5.0,23,0.00,,,0.00,1.000000,,2013-06-02 09:01:00,
2013-06-02 02:33:00,72.0,34.0,-100.00,NNE,27,1.0,4.0,25,0.00,,,0.00,1.000000,,2013-06-02 09:33:00,
2013-06-02 02:53:00,72.0,34.0,-100.00,NNE,27,1.0,4.0,25,0.00,,,0.00,1.000000,,2013-06-02 09:53:00,
2013-06-02 03:02:00,72.0,34.0,-100.00,NNE,27,1.0,4.0,25,0.00,,,0.00,1.000000,,2013-06-02 10:02:00,
2013-06-02 03:33:00,73.0,35.0,-100.00,NNW,348,3.0,4.0,25,0.00,,,0.00,1.000000,,2013-06-02 10:33:00,
2013-06-02 03:42:00,73.0,35.0,-100.00,NNW,348,3.0,4.0,25,0.00,,,0.00,1.000000,,2013-06-02 10:42:00,
2013-06-02 03:52:00,73.0,35.0,-100.00,NNW,348,3.0,4.0,25,0.00,,,0.00,1.000000,,2013-06-02 10:52:00,
2013-06-02 04:02:00,73.0,35.0,-100.00,NNW,348,3.0,4.0,25,0.00,,,0.00,1.000000,,2013-06-02 11:02:00,
2013-06-02 04:32:00,74.0,36.0,-100.00,NNE,26,4.0,6.0,25,0.00,,,-99.99,1.000000,,2013-06-02 11:32:00,
2013-06-02 04:42:00,74.0,36.0,-100.00,NNE,26,4.0,6.0,25,0.00,,,-99.99,1.000000,,2013-06-02 11:42:00,
2013-06-02 04:52:00,74.0,36.0,-100.00,NNE,26,4.0,6.0,25,0.00,,,-99.99,1.000000,,2013-06-02 11:52:00,
2013-06-02 05:01:00,74.0,36.0,-100.00,NNE,26,4.0,6.0,25,0.00,,,-99.99,1.000000,,2013-06-02 12:01:00,
2013-06-02 05:32:00,74.0,33.0,-100.00,NE,54,2.0,7.0,22,0.00,,,0.00,1.000000,,2013-06-02 12:32:00,
2013-06-02 05:42:00,74.0,33.0,-100.00,NE,54,2.0,7.0,22,0.00,,,0.00,1.000000,,2013-06-02 12:42:00,
2013-06-02 05:52:00,74.0,33.0,-100.00,NE,54,2.0,7.0,22,0.00,,,0.00,1.000000,,2013-06-02 12:52:00,
2013-06-02 06:01:00,74.0,33.0,-100.00,NE,54,2.0,7.0,22,0.00,,,0.00,1.000000,,2013-06-02 13:01:00,
2013-06-02 06:32:00,74.0,36.0,-100.00,West,264,2.0,5.0,25,0.00,,,0.00,24.000000,,2013-06-02 13:32:00,
2013-06-02 06:42:00,74.0,36.0,-100.00,West,264,2.0,5.0,25,0.00,,,0.00,24.000000,,2013-06-02 13:42:00,
2013-06-02 06:52:00,74.0,36.0,-100.00,West,264,2.0,5.0,25,0.00,,,0.00,24.000000,,2013-06-02 13:52:00,
2013-06-02 07:01:00,74.0,36.0,-100.00,West,264,2.0,5.0,25,0.00,,,0.00,24.000000,,2013-06-02 14:01:00,
2013-06-02 07:32:00,88.0,43.0,-100.00,NNW,347,1.0,4.0,21,0.00,,,0.00,197.000000,,2013-06-02 14:32:00,
2013-06-02 08:33:00,91.0,46.0,-100.00,South,183,3.0,5.0,21,0.00,,,-99.99,403.000000,,2013-06-02 15:33:00,
2013-06-02 08:43:00,91.0,46.0,-100.00,South,183,3.0,5.0,21,0.00,,,-99.99,403.000000,,2013-06-02 15:43:00,
2013-06-02 08:53:00,91.0,46.0,-100.00,South,183,3.0,5.0,21,0.00,,,-99.99,403.000000,,2013-06-02 15:53:00,
2013-06-02 09:03:00,91.0,46.0,-100.00,South,183,3.0,5.0,21,0.00,,,-99.99,403.000000,,2013-06-02 16:03:00,
2013-06-02 09:33:00,95.0,43.0,-100.00,East,81,3.0,6.0,17,0.00,,,0.00,606.000000,,2013-06-02 16:33:00,
2013-06-02 09:42:00,95.0,43.0,-100.00,East,81,3.0,6.0,17,0.00,,,0.00,606.000000,,2013-06-02 16:42:00,
2013-06-02 09:52:00,95.0,43.0,-100.00,East,81,3.0,6.0,17,0.00,,,0.00,606.000000,,2013-06-02 16:52:00,
2013-06-02 10:02:00,95.0,43.0,-100.00,East,81,3.0,6.0,17,0.00,,,0.00,606.000000,,2013-06-02 17:02:00,
2013-06-02 10:32:00,98.0,42.0,-100.00,SSW,206,4.0,7.0,15,0.00,,,0.00,785.000000,,2013-06-02 17:32:00,
2013-06-02 10:42:00,98.0,42.0,-100.00,SSW,206,4.0,7.0,15,0.00,,,0.00,785.000000,,2013-06-02 17:42:00,
2013-06-02 10:52:00,98.0,42.0,-100.00,SSW,206,4.0,7.0,15,0.00,,,0.00,785.000000,,2013-06-02 17:52:00,
2013-06-02 11:01:00,98.0,42.0,-100.00,SSW,206,4.0,7.0,15,0.00,,,0.00,785.000000,,2013-06-02 18:01:00,
2013-06-02 11:32:00,102.0,40.0,-100.00,NW,306,4.0,8.0,12,0.00,,,0.00,916.000000,,2013-06-02 18:32:00,
2013-06-02 11:42:00,102.0,40.0,-100.00,NW,306,4.0,8.0,12,0.00,,,0.00,916.000000,,2013-06-02 18:42:00,
2013-06-02 11:52:00,102.0,40.0,-100.00,NW,306,4.0,8.0,12,0.00,,,0.00,916.000000,,2013-06-02 18:52:00,
2013-06-02 12:01:00,102.0,40.0,-100.00,NW,306,4.0,8.0,12,0.00,,,0.00,916.000000,,2013-06-02 19:01:00,
2013-06-02 12:32:00,103.0,38.0,-100.00,West,269,6.0,11.0,11,0.00,,,-99.99,990.000000,,2013-06-02 19:32:00,
2013-06-02 12:42:00,103.0,38.0,-100.00,West,269,6.0,11.0,11,0.00,,,-99.99,990.000000,,2013-06-02 19:42:00,
2013-06-02 12:52:00,103.0,38.0,-100.00,West,269,6.0,11.0,11,0.00,,,-99.99,990.000000,,2013-06-02 19:52:00,
2013-06-02 13:02:00,103.0,38.0,-100.00,West,269,6.0,11.0,11,0.00,,,-99.99,990.000000,,2013-06-02 20:02:00,
2013-06-02 13:32:00,104.0,37.0,-100.00,West,274,9.0,14.0,10,0.00,,,0.00,1006.000000,,2013-06-02 20:32:00,
2013-06-02 13:42:00,104.0,37.0,-100.00,West,274,9.0,14.0,10,0.00,,,0.00,1006.000000,,2013-06-02 20:42:00,
2013-06-02 13:52:00,104.0,37.0,-100.00,West,274,9.0,14.0,10,0.00,,,0.00,1006.000000,,2013-06-02 20:52:00,
2013-06-02 14:01:00,104.0,37.0,-100.00,West,274,9.0,14.0,10,0.00,,,0.00,1006.000000,,2013-06-02 21:01:00,
2013-06-02 14:33:00,106.0,35.0,-100.00,WSW,255,7.0,19.0,9,0.00,,,0.00,965.000000,,2013-06-02 21:33:00,
2013-06-02 14:42:00,106.0,35.0,-100.00,WSW,255,7.0,19.0,9,0.00,,,0.00,965.000000,,2013-06-02 21:42:00,
2013-06-02 14:53:00,106.0,35.0,-100.00,WSW,255,7.0,19.0,9,0.00,,,0.00,965.000000,,2013-06-02 21:53:00,
2013-06-02 15:02:00,106.0,35.0,-100.00,WSW,255,7.0,19.0,9,0.00,,,0.00,965.000000,,2013-06-02 22:02:00,
2013-06-02 15:33:00,106.0,35.0,-100.00,WSW,255,9.0,16.0,9,0.00,,,0.00,852.000000,,2013-06-02 22:33:00,
2013-06-02 15:42:00,106.0,35.0,-100.00,WSW,255,9.0,16.0,9,0.00,,,0.00,852.000000,,2013-06-02 22:42:00,
2013-06-02 15:52:00,106.0,35.0,-100.00,WSW,255,9.0,16.0,9,0.00,,,0.00,852.000000,,2013-06-02 22:52:00,
2013-06-02 16:02:00,106.0,35.0,-100.00,WSW,255,9.0,16.0,9,0.00,,,0.00,852.000000,,2013-06-02 23:02:00,
2013-06-02 16:32:00,105.0,29.0,-100.00,WSW,238,10.0,20.0,7,0.00,,,0.00,722.000000,,2013-06-02 23:32:00,
2013-06-02 16:42:00,105.0,29.0,-100.00,WSW,238,10.0,20.0,7,0.00,,,0.00,722.000000,,2013-06-02 23:42:00,
2013-06-02 16:52:00,105.0,29.0,-100.00,WSW,238,10.0,20.0,7,0.00,,,0.00,722.000000,,2013-06-02 23:52:00,
2013-06-02 17:01:00,105.0,29.0,-100.00,WSW,238,10.0,20.0,7,0.00,,,0.00,722.000000,,2013-06-03 00:01:00,
2013-06-02 17:32:00,105.0,29.0,-100.00,SSW,208,9.0,19.0,7,0.00,,,0.00,533.000000,,2013-06-03 00:32:00,
2013-06-02 17:42:00,105.0,29.0,-100.00,SSW,208,9.0,19.0,7,0.00,,,0.00,533.000000,,2013-06-03 00:42:00,
2013-06-02 17:52:00,105.0,29.0,-100.00,SSW,208,9.0,19.0,7,0.00,,,0.00,533.000000,,2013-06-03 00:52:00,
2013-06-02 18:01:00,105.0,29.0,-100.00,SSW,208,9.0,19.0,7,0.00,,,0.00,533.000000,,2013-06-03 01:01:00,
2013-06-02 18:32:00,102.0,32.0,-100.00,WSW,238,8.0,18.0,9,0.00,,,0.00,316.000000,,2013-06-03 01:32:00,
2013-06-02 18:42:00,102.0,32.0,-100.00,WSW,238,8.0,18.0,9,0.00,,,0.00,316.000000,,2013-06-03 01:42:00,
2013-06-02 18:52:00,102.0,32.0,-100.00,WSW,238,8.0,18.0,9,0.00,,,0.00,316.000000,,2013-06-03 01:52:00,
2013-06-02 19:02:00,102.0,32.0,-100.00,WSW,238,8.0,18.0,9,0.00,,,0.00,316.000000,,2013-06-03 02:02:00,
2013-06-02 19:32:00,98.0,27.0,-100.00,WSW,253,9.0,15.0,8,0.00,,,0.00,98.000000,,2013-06-03 02:32:00,
2013-06-02 19:42:00,98.0,27.0,-100.00,WSW,253,9.0,15.0,8,0.00,,,0.00,98.000000,,2013-06-03 02:42:00,
2013-06-02 19:52:00,98.0,27.0,-100.00,WSW,253,9.0,15.0,8,0.00,,,0.00,98.000000,,2013-06-03 02:52:00,
2013-06-02 20:02:00,98.0,27.0,-100.00,WSW,253,9.0,15.0,8,0.00,,,0.00,98.000000,,2013-06-03 03:02:00,
2013-06-02 20:33:00,91.0,24.0,-100.00,NW,309,4.0,11.0,9,0.00,,,0.00,4.000000,,2013-06-03 03:33:00,
2013-06-02 20:43:00,91.0,24.0,-100.00,NW,309,4.0,11.0,9,0.00,,,0.00,4.000000,,2013-06-03 03:43:00,
2013-06-02 20:53:00,91.0,24.0,-100.00,NW,309,4.0,11.0,9,0.00,,,0.00,4.000000,,2013-06-03 03:53:00,
2013-06-02 21:02:00,91.0,24.0,-100.00,NW,309,4.0,11.0,9,0.00,,,0.00,4.000000,,2013-06-03 04:02:00,
2013-06-02 21:33:00,91.0,31.0,-100.00,WNW,295,9.0,19.0,12,0.00,,,0.00,1.000000,,2013-06-03 04:33:00,
2013-06-02 21:42:00,91.0,31.0,-100.00,WNW,295,9.0,19.0,12,0.00,,,0.00,1.000000,,2013-06-03 04:42:00,
2013-06-02 21:53:00,91.0,31.0,-100.00,WNW,295,9.0,19.0,12,0.00,,,0.00,1.000000,,2013-06-03 04:53:00,
2013-06-02 22:02:00,91.0,31.0,-100.00,WNW,295,9.0,19.0,12,0.00,,,0.00,1.000000,,2013-06-03 05:02:00,
2013-06-02 22:32:00,89.0,35.0,-100.00,WNW,295,9.0,17.0,15,0.00,,,0.00,1.000000,,2013-06-03 05:32:00,
2013-06-02 22:43:00,89.0,35.0,-100.00,WNW,295,9.0,17.0,15,0.00,,,0.00,1.000000,,2013-06-03 05:43:00,
2013-06-02 22:52:00,89.0,35.0,-100.00,WNW,295,9.0,17.0,15,0.00,,,0.00,1.000000,,2013-06-03 05:52:00,
2013-06-02 23:02:00,89.0,35.0,-100.00,WNW,295,9.0,17.0,15,0.00,,,0.00,1.000000,,2013-06-03 06:02:00,
2013-06-02 23:32:00,86.0,36.0,-100.00,West,279,4.0,15.0,17,0.00,,,0.00,1.000000,,2013-06-03 06:32:00,
2013-06-02 23:42:00,86.0,36.0,-100.00,West,279,4.0,15.0,17,0.00,,,0.00,1.000000,,2013-06-03 06:42:00,
2013-06-02 23:52:00,86.0,36.0,-100.00,West,279,4.0,15.0,17,0.00,,,0.00,1.000000,,2013-06-03 06:52:00,